logo
Search for airport 
image banner adimage banner adimage banner ad
image banner ad

EI0020 - Kilmallock

Located in , Ireland

ICAO - , IATA -

Data provided by Airmate  

General information

Coordinates: N52°23'56" W8°34'24"
Elevation is 301 feet MSL.
 
View others Airports in County Limerick

Operational data

Special qualification required
Current time UTC:
Current local time:
Weather at : EINN - Shannon ( 41 km )
METAR: EINN 220230Z 20007KT 9999 FEW020 BKN040 12/10 Q1010 NOSIG
TAF: TAF EINN 212300Z 2200/2224 26006KT 9999 SCT045 BECMG 2203/2205 18010KT BECMG 2210/2212 22010KT BECMG 2213/2215 25010KT BKN010 TEMPO 2214/2220 4000 -DZ BKN007 BECMG 2220/2222 30006KT BKN015
View NOTAMs / SUP AIP / TFR affecting this airport [VIEW]
Communications frequencies: [VIEW]

Runways:

Airport contact information

Address: Ireland

Satellite view of EI0020